createdAt,value
2023-05-15T00:00:23.126Z,1.33
2023-05-15T00:02:50.464Z,1.30
2023-05-15T00:05:17.970Z,1.17
2023-05-15T00:07:45.444Z,1.30
2023-05-15T00:10:13.053Z,1.00
2023-05-15T00:12:39.964Z,1.20
2023-05-15T00:15:07.957Z,1.10
2023-05-15T00:17:34.969Z,1.23
2023-05-15T00:20:02.238Z,1.40
2023-05-15T00:22:29.257Z,1.20
2023-05-15T00:24:56.273Z,1.42
2023-05-15T00:27:23.145Z,1.40
2023-05-15T00:29:50.169Z,1.17
2023-05-15T00:32:17.157Z,1.38
2023-05-15T00:34:44.522Z,1.60
2023-05-15T00:37:12.621Z,1.35
2023-05-15T00:39:39.700Z,1.30
2023-05-15T00:42:08.007Z,1.20
2023-05-15T00:44:36.188Z,1.35
2023-05-15T00:47:03.927Z,1.05
2023-05-15T00:49:32.790Z,1.30
2023-05-15T00:52:03.945Z,1.23
2023-05-15T00:54:31.347Z,1.50
2023-05-15T00:57:00.870Z,1.40
2023-05-15T00:59:32.359Z,1.23
2023-05-15T01:01:59.471Z,1.27
2023-05-15T01:04:26.832Z,1.30
2023-05-15T01:06:54.252Z,1.33
2023-05-15T01:09:25.917Z,1.30
2023-05-15T01:11:59.271Z,1.63
2023-05-15T01:14:26.324Z,1.40
2023-05-15T01:16:53.743Z,1.20
2023-05-15T01:19:21.439Z,1.30
2023-05-15T01:22:38.068Z,1.30
2023-05-15T01:25:16.847Z,1.58
2023-05-15T01:27:51.732Z,1.50
2023-05-15T01:30:36.453Z,1.30
2023-05-15T01:33:17.449Z,2.15
2023-05-15T01:36:12.730Z,1.63
2023-05-15T01:38:57.696Z,1.52
2023-05-15T01:41:31.952Z,1.80
2023-05-15T01:44:17.615Z,1.58
2023-05-15T01:46:48.250Z,1.88
2023-05-15T01:49:19.703Z,1.73
2023-05-15T01:51:51.928Z,1.70
2023-05-15T01:54:19.792Z,1.60
2023-05-15T01:56:47.148Z,1.67
2023-05-15T01:59:16.700Z,1.65
2023-05-15T02:01:45.615Z,1.60
2023-05-15T02:04:14.402Z,1.70
2023-05-15T02:06:41.886Z,2.20
2023-05-15T02:09:10.839Z,1.80
2023-05-15T02:11:38.010Z,1.80
2023-05-15T02:14:06.549Z,1.40
2023-05-15T02:16:33.615Z,1.60
2023-05-15T02:19:01.005Z,2.03
2023-05-15T02:21:28.543Z,1.83
2023-05-15T02:23:55.421Z,2.05
2023-05-15T02:27:01.223Z,2.38
2023-05-15T02:29:40.051Z,1.35
2023-05-15T02:32:17.062Z,2.13
2023-05-15T02:35:29.658Z,1.95
2023-05-15T02:38:00.886Z,1.92
2023-05-15T02:40:29.086Z,1.95
2023-05-15T02:42:57.160Z,1.40
2023-05-15T02:45:24.929Z,1.70
2023-05-15T02:47:53.428Z,1.80
2023-05-15T02:50:20.951Z,1.70
2023-05-15T02:52:47.980Z,2.25
2023-05-15T02:55:15.278Z,1.67
2023-05-15T03:00:26.827Z,1.63
2023-05-15T03:02:54.060Z,1.90
2023-05-15T03:05:21.398Z,2.40
2023-05-15T03:07:48.558Z,3.08
2023-05-15T03:10:16.027Z,3.28
2023-05-15T03:12:42.896Z,3.38
2023-05-15T03:15:10.418Z,3.40
2023-05-15T03:17:37.766Z,3.22
2023-05-15T03:20:05.634Z,2.35
2023-05-15T03:22:32.635Z,2.25
2023-05-15T03:25:01.938Z,2.47
2023-05-15T03:27:29.099Z,2.95
2023-05-15T03:29:56.530Z,2.53
2023-05-15T03:32:24.138Z,2.88
2023-05-15T03:34:51.399Z,2.63
2023-05-15T03:37:18.491Z,3.00
2023-05-15T03:39:45.751Z,3.10
2023-05-15T03:42:12.810Z,3.85
2023-05-15T03:44:40.202Z,2.78
2023-05-15T03:47:07.720Z,2.75
2023-05-15T03:49:35.460Z,2.67
2023-05-15T03:52:02.483Z,3.08
2023-05-15T03:54:29.825Z,2.60
2023-05-15T03:56:57.826Z,2.50
2023-05-15T03:59:24.781Z,2.63
2023-05-15T04:02:03.379Z,2.40
2023-05-15T04:04:33.631Z,2.60
2023-05-15T04:07:00.941Z,3.05
2023-05-15T04:09:27.916Z,2.78
2023-05-15T04:11:55.009Z,3.10
2023-05-15T04:14:21.963Z,3.17
2023-05-15T04:16:49.096Z,2.72
2023-05-15T04:19:16.187Z,2.95
2023-05-15T04:21:43.325Z,2.50
2023-05-15T04:24:11.455Z,2.20
2023-05-15T04:26:38.743Z,3.13
2023-05-15T04:29:06.420Z,2.67
2023-05-15T04:31:35.561Z,2.90
2023-05-15T04:34:04.135Z,3.40
2023-05-15T04:36:31.836Z,3.13
2023-05-15T04:38:59.084Z,2.90
2023-05-15T04:41:27.135Z,2.83
2023-05-15T04:43:54.862Z,2.53
2023-05-15T04:46:22.208Z,3.13
2023-05-15T04:48:49.512Z,2.63
2023-05-15T04:51:16.385Z,2.78
2023-05-15T04:53:43.233Z,2.65
2023-05-15T04:56:10.095Z,2.55
2023-05-15T04:58:37.429Z,2.72
2023-05-15T05:01:05.012Z,3.20
2023-05-15T05:03:32.291Z,2.67
2023-05-15T05:05:59.210Z,2.85
2023-05-15T05:08:26.298Z,3.40
2023-05-15T05:11:03.419Z,2.40
2023-05-15T05:13:30.632Z,2.05
2023-05-15T05:15:57.897Z,3.05
2023-05-15T05:18:24.958Z,2.72
2023-05-15T05:21:00.834Z,3.35
2023-05-15T05:23:28.655Z,3.15
2023-05-15T05:25:56.138Z,3.15
2023-05-15T05:28:23.598Z,3.78
2023-05-15T05:30:51.424Z,4.15
2023-05-15T05:33:18.386Z,3.28
2023-05-15T05:35:46.225Z,3.88
2023-05-15T05:38:13.540Z,3.15
2023-05-15T05:40:42.976Z,2.78
2023-05-15T05:43:10.507Z,3.15
2023-05-15T05:45:37.852Z,3.33
2023-05-15T05:48:06.679Z,3.72
2023-05-15T05:50:34.028Z,2.95
2023-05-15T05:53:01.051Z,3.45
2023-05-15T05:55:28.451Z,3.28
2023-05-15T05:57:55.572Z,3.00
2023-05-15T06:00:22.776Z,2.65
2023-05-15T06:03:00.718Z,2.70
2023-05-15T06:05:27.879Z,2.38
2023-05-15T06:07:56.251Z,2.35
2023-05-15T06:10:23.902Z,2.20
2023-05-15T06:12:51.281Z,2.20
2023-05-15T06:15:18.492Z,2.00
2023-05-15T06:17:45.436Z,1.90
2023-05-15T06:20:12.604Z,1.70
2023-05-15T06:22:40.005Z,1.92
2023-05-15T06:25:08.444Z,2.20
2023-05-15T06:27:35.754Z,1.55
2023-05-15T06:30:03.271Z,2.05
2023-05-15T06:32:32.544Z,2.00
2023-05-15T06:35:01.624Z,2.13
2023-05-15T06:37:29.387Z,1.98
2023-05-15T06:39:56.527Z,2.20
2023-05-15T06:42:23.761Z,1.90
2023-05-15T06:44:51.182Z,2.45
2023-05-15T06:47:18.722Z,2.55
2023-05-15T06:49:45.873Z,2.80
2023-05-15T06:52:12.868Z,2.50
2023-05-15T06:54:41.816Z,2.70
2023-05-15T06:57:08.889Z,3.20
2023-05-15T06:59:35.860Z,2.90
2023-05-15T07:02:04.026Z,2.97
2023-05-15T07:04:31.998Z,2.70
2023-05-15T07:06:59.977Z,3.03
2023-05-15T07:09:27.145Z,2.55
2023-05-15T07:11:54.057Z,3.17
2023-05-15T07:14:21.185Z,2.67
2023-05-15T07:16:48.542Z,2.50
2023-05-15T07:19:21.321Z,2.97
2023-05-15T07:21:48.588Z,3.05
2023-05-15T07:24:15.972Z,3.15
2023-05-15T07:26:54.392Z,3.45
2023-05-15T07:33:01.914Z,3.13
2023-05-15T07:35:29.197Z,3.17
2023-05-15T07:37:56.204Z,3.35
2023-05-15T07:40:23.246Z,3.58
2023-05-15T07:42:50.160Z,3.65
2023-05-15T07:45:17.229Z,3.00
2023-05-15T07:47:49.230Z,3.50
2023-05-15T07:50:17.399Z,3.30
2023-05-15T07:52:44.570Z,2.70
2023-05-15T07:55:13.085Z,2.95
2023-05-15T07:57:40.584Z,2.42
2023-05-15T08:00:13.560Z,2.97
2023-05-15T08:02:41.668Z,2.60
2023-05-15T08:05:08.834Z,2.58
2023-05-15T08:11:41.776Z,2.78
2023-05-15T08:14:09.321Z,2.28
2023-05-15T08:16:37.542Z,2.58
2023-05-15T08:19:06.963Z,2.40
2023-05-15T08:21:34.687Z,2.60
2023-05-15T08:24:01.688Z,2.30
2023-05-15T08:26:29.506Z,2.55
2023-05-15T08:28:59.817Z,3.33
2023-05-15T08:31:27.090Z,3.05
2023-05-15T08:33:55.097Z,2.53
2023-05-15T08:36:22.286Z,3.85
2023-05-15T08:38:49.308Z,3.15
2023-05-15T08:41:40.417Z,3.80
2023-05-15T08:44:12.447Z,2.77
2023-05-15T08:46:39.679Z,2.95
2023-05-15T08:49:57.512Z,3.50
2023-05-15T08:52:27.009Z,3.20
2023-05-15T08:54:54.415Z,3.08
2023-05-15T08:57:21.987Z,2.88
2023-05-15T08:59:49.710Z,2.50
2023-05-15T09:02:17.166Z,2.15
2023-05-15T09:04:45.919Z,2.30
2023-05-15T09:07:15.859Z,2.60
2023-05-15T09:09:44.801Z,2.30
2023-05-15T09:12:18.395Z,3.10
2023-05-15T09:14:45.570Z,2.95
2023-05-15T09:17:13.262Z,3.20
2023-05-15T09:19:43.090Z,3.20
2023-05-15T09:22:24.749Z,3.10
2023-05-15T09:24:53.335Z,3.45
2023-05-15T09:27:21.173Z,3.05
2023-05-15T09:29:48.891Z,2.90
2023-05-15T09:32:16.055Z,3.10
2023-05-15T09:34:45.426Z,2.97
2023-05-15T09:37:32.602Z,3.13
2023-05-15T09:40:14.052Z,3.53
2023-05-15T09:42:40.998Z,3.22
2023-05-15T09:45:18.439Z,3.00
2023-05-15T09:47:47.171Z,3.13
2023-05-15T09:50:23.055Z,2.95
2023-05-15T09:52:51.930Z,2.90
2023-05-15T09:55:23.404Z,2.97
2023-05-15T09:58:12.396Z,2.85
2023-05-15T10:00:48.174Z,1.90
2023-05-15T10:03:22.270Z,2.10
2023-05-15T10:05:49.531Z,2.65
2023-05-15T10:08:27.325Z,3.25
2023-05-15T10:10:56.248Z,2.00
2023-05-15T10:13:24.120Z,2.25
2023-05-15T10:15:52.952Z,2.50
2023-05-15T10:18:24.955Z,2.42
2023-05-15T10:20:53.139Z,2.40
2023-05-15T10:23:23.362Z,2.45
2023-05-15T10:26:06.658Z,2.22
2023-05-15T10:28:35.577Z,2.35
2023-05-15T10:31:04.345Z,2.47
2023-05-15T10:33:33.165Z,2.22
2023-05-15T10:36:01.718Z,2.70
2023-05-15T10:38:29.787Z,1.60
2023-05-15T10:41:13.088Z,1.90
2023-05-15T10:43:44.819Z,2.15
2023-05-15T10:46:12.327Z,2.50
2023-05-15T10:48:40.143Z,2.38
2023-05-15T10:51:18.396Z,2.30
2023-05-15T10:53:46.805Z,3.17
2023-05-15T10:56:20.199Z,3.22
2023-05-15T10:58:54.822Z,3.05
2023-05-15T11:01:32.231Z,2.90
2023-05-15T11:04:18.896Z,3.45
2023-05-15T11:06:48.859Z,3.50
2023-05-15T11:09:22.227Z,3.20
2023-05-15T11:11:52.527Z,2.60
2023-05-15T11:14:20.043Z,2.33
2023-05-15T11:16:53.434Z,2.53
2023-05-15T11:19:29.447Z,2.35
2023-05-15T11:22:11.945Z,2.22
2023-05-15T11:25:00.825Z,2.05
2023-05-15T11:27:42.125Z,2.38
2023-05-15T11:30:21.958Z,2.90
2023-05-15T11:32:55.942Z,3.15
2023-05-15T11:35:34.066Z,3.30
2023-05-15T11:38:10.802Z,2.70
2023-05-15T11:40:47.445Z,2.80
2023-05-15T11:43:32.360Z,1.65
2023-05-15T11:46:12.927Z,2.60
2023-05-15T11:48:45.432Z,2.20
2023-05-15T11:51:33.051Z,2.72
2023-05-15T11:54:02.607Z,2.90
2023-05-15T11:56:32.554Z,2.97
2023-05-15T11:59:02.396Z,2.90
2023-05-15T12:01:43.322Z,3.08
2023-05-15T12:04:18.760Z,2.95
2023-05-15T12:06:47.688Z,3.20
2023-05-15T12:09:16.929Z,2.88
2023-05-15T12:11:54.955Z,3.33
2023-05-15T12:14:32.090Z,3.00
2023-05-15T12:17:06.329Z,3.38
2023-05-15T12:19:35.184Z,3.72
2023-05-15T12:22:06.609Z,3.55
2023-05-15T12:24:35.915Z,3.55
2023-05-15T12:27:03.304Z,4.03
2023-05-15T12:29:30.823Z,3.90
2023-05-15T12:31:57.918Z,3.58
2023-05-15T12:34:25.056Z,2.88
2023-05-15T12:36:52.039Z,3.10
2023-05-15T12:39:19.054Z,3.75
2023-05-15T12:41:47.793Z,3.08
2023-05-15T12:44:19.400Z,2.42
2023-05-15T12:46:47.971Z,3.40
2023-05-15T12:49:22.907Z,3.80
2023-05-15T12:51:51.214Z,6.82
2023-05-15T12:54:21.746Z,3.45
2023-05-15T12:56:49.581Z,4.35
2023-05-15T12:59:19.409Z,3.35
2023-05-15T13:01:47.056Z,4.25
2023-05-15T13:04:16.593Z,3.63
2023-05-15T13:06:46.818Z,2.65
2023-05-15T13:09:17.153Z,3.45
2023-05-15T13:11:45.330Z,3.20
2023-05-15T13:14:17.536Z,3.08
2023-05-15T13:16:47.015Z,3.78
2023-05-15T13:19:14.428Z,3.45
2023-05-15T13:21:41.601Z,2.70
2023-05-15T13:24:11.092Z,3.25
2023-05-15T13:26:39.333Z,2.97
2023-05-15T13:29:06.334Z,4.38
2023-05-15T13:31:33.382Z,4.18
2023-05-15T13:34:00.429Z,5.05
2023-05-15T13:36:28.192Z,6.60
2023-05-15T13:38:55.293Z,6.97
2023-05-15T13:41:25.616Z,8.27
2023-05-15T13:43:52.498Z,7.80
2023-05-15T13:46:19.874Z,9.77
2023-05-15T13:48:47.245Z,9.23
2023-05-15T13:51:14.593Z,10.02
2023-05-15T13:53:41.856Z,8.95
2023-05-15T13:56:09.208Z,8.30
2023-05-15T13:58:36.472Z,6.95
2023-05-15T14:01:07.443Z,7.85
2023-05-15T14:03:34.703Z,7.40
2023-05-15T14:06:01.771Z,7.97
2023-05-15T14:08:28.937Z,8.63
2023-05-15T14:10:56.306Z,7.95
2023-05-15T14:13:24.583Z,6.75
2023-05-15T14:15:52.613Z,6.45
2023-05-15T14:18:19.654Z,6.85
2023-05-15T14:20:46.574Z,7.00
2023-05-15T14:23:13.556Z,7.13
2023-05-15T14:25:41.791Z,7.32
2023-05-15T14:28:08.696Z,8.25
2023-05-15T14:30:35.624Z,8.32
2023-05-15T14:33:02.788Z,8.50
2023-05-15T14:35:30.046Z,8.90
2023-05-15T14:37:57.865Z,10.88
2023-05-15T14:40:24.931Z,10.55
2023-05-15T14:42:52.386Z,5.85
2023-05-15T14:45:19.337Z,6.25
2023-05-15T14:47:46.695Z,5.75
2023-05-15T14:50:15.795Z,6.32
2023-05-15T14:52:43.114Z,5.75
2023-05-15T14:55:10.805Z,5.95
2023-05-15T14:57:38.652Z,5.78
2023-05-15T15:00:07.415Z,7.80
2023-05-15T15:02:38.180Z,6.63
2023-05-15T15:05:06.299Z,7.15
2023-05-15T15:08:03.811Z,6.97
2023-05-15T15:10:33.155Z,7.63
2023-05-15T15:13:01.383Z,6.72
2023-05-15T15:15:28.685Z,6.75
2023-05-15T15:17:59.852Z,6.43
2023-05-15T15:20:28.407Z,6.63
2023-05-15T15:22:56.451Z,6.88
2023-05-15T15:25:24.274Z,8.15
2023-05-15T15:27:51.936Z,7.28
2023-05-15T15:30:19.556Z,6.88
2023-05-15T15:32:46.691Z,7.95
2023-05-15T15:35:14.163Z,7.35
2023-05-15T15:37:41.482Z,6.82
2023-05-15T15:40:09.085Z,5.28
2023-05-15T15:42:36.254Z,5.45
2023-05-15T15:45:04.841Z,5.18
2023-05-15T15:47:37.034Z,4.47
2023-05-15T15:50:04.770Z,5.40
2023-05-15T15:52:33.345Z,5.00
2023-05-15T15:55:00.309Z,5.18
2023-05-15T15:57:29.571Z,4.57
2023-05-15T15:59:58.448Z,4.82
2023-05-15T16:02:25.589Z,5.20
2023-05-15T16:04:54.064Z,5.32
2023-05-15T16:07:24.252Z,4.90
2023-05-15T16:10:00.427Z,5.90
2023-05-15T16:12:40.576Z,5.63
2023-05-15T16:15:21.786Z,5.95
2023-05-15T16:17:53.288Z,6.53
2023-05-15T16:20:21.260Z,6.20
2023-05-15T16:22:48.430Z,5.78
2023-05-15T16:25:15.498Z,5.32
2023-05-15T16:27:43.011Z,4.45
2023-05-15T16:30:11.688Z,5.18
2023-05-15T16:32:39.584Z,5.50
2023-05-15T16:35:07.815Z,5.13
2023-05-15T16:37:35.103Z,4.65
2023-05-15T16:40:02.695Z,4.55
2023-05-15T16:42:34.685Z,5.03
2023-05-15T16:45:01.812Z,4.55
2023-05-15T16:47:28.713Z,4.63
2023-05-15T16:49:56.321Z,5.72
2023-05-15T16:52:23.591Z,4.30
2023-05-15T16:54:51.844Z,5.03
2023-05-15T16:57:20.776Z,4.50
2023-05-15T16:59:48.555Z,4.28
2023-05-15T17:02:16.067Z,5.57
2023-05-15T17:04:43.532Z,4.90
2023-05-15T17:07:10.559Z,5.65
2023-05-15T17:09:39.112Z,4.53
2023-05-15T17:12:06.992Z,5.20
2023-05-15T17:14:33.978Z,4.78
2023-05-15T17:17:01.341Z,5.60
2023-05-15T17:19:28.287Z,6.32
2023-05-15T17:21:55.709Z,5.53
2023-05-15T17:24:23.377Z,5.45
2023-05-15T17:26:51.323Z,6.28
2023-05-15T17:29:18.550Z,4.88
2023-05-15T17:31:46.250Z,5.25
2023-05-15T17:34:13.855Z,4.68
2023-05-15T17:36:43.542Z,4.60
2023-05-15T17:39:11.174Z,3.92
2023-05-15T17:41:38.470Z,4.82
2023-05-15T17:44:05.985Z,5.07
2023-05-15T17:46:33.669Z,4.70
2023-05-15T17:49:00.911Z,4.75
2023-05-15T17:51:28.130Z,6.20
2023-05-15T17:53:55.027Z,5.43
2023-05-15T17:56:23.311Z,5.47
2023-05-15T17:58:50.232Z,5.13
2023-05-15T18:01:17.369Z,4.70
2023-05-15T18:03:44.404Z,6.20
2023-05-15T18:06:13.649Z,5.32
2023-05-15T18:08:47.490Z,4.45
2023-05-15T18:11:22.396Z,4.75
2023-05-15T18:13:49.878Z,5.85
2023-05-15T18:16:18.319Z,4.55
2023-05-15T18:18:46.084Z,4.78
2023-05-15T18:21:12.962Z,5.65
2023-05-15T18:23:39.869Z,5.63
2023-05-15T18:26:06.885Z,5.38
2023-05-15T18:28:33.888Z,5.43
2023-05-15T18:31:00.980Z,6.43
2023-05-15T18:33:28.391Z,6.00
2023-05-15T18:35:58.175Z,5.35
2023-05-15T18:38:25.226Z,5.75
2023-05-15T18:40:52.319Z,4.88
2023-05-15T18:43:19.510Z,7.05
2023-05-15T18:45:46.777Z,7.00
2023-05-15T18:48:13.830Z,6.53
2023-05-15T18:50:41.422Z,6.97
2023-05-15T18:53:08.434Z,7.18
2023-05-15T18:55:35.468Z,6.63
2023-05-15T18:58:02.511Z,6.60
2023-05-15T19:00:38.152Z,5.53
2023-05-15T19:03:08.453Z,7.25
2023-05-15T19:05:35.956Z,7.20
2023-05-15T19:08:03.308Z,6.65
2023-05-15T19:10:30.765Z,7.15
2023-05-15T19:12:58.367Z,6.57
2023-05-15T19:15:25.980Z,5.10
2023-05-15T19:17:53.108Z,5.60
2023-05-15T19:20:23.792Z,5.30
2023-05-15T19:22:51.456Z,6.10
2023-05-15T19:25:18.720Z,6.85
2023-05-15T19:27:46.608Z,7.18
2023-05-15T19:30:13.649Z,6.95
2023-05-15T19:32:40.765Z,5.57
2023-05-15T19:35:08.574Z,7.35
2023-05-15T19:37:36.576Z,7.80
2023-05-15T19:40:04.507Z,7.47
2023-05-15T19:42:32.132Z,6.45
2023-05-15T19:44:59.350Z,6.45
2023-05-15T19:47:26.813Z,7.53
2023-05-15T19:49:53.927Z,6.07
2023-05-15T19:52:21.265Z,7.13
2023-05-15T19:54:48.369Z,7.13
2023-05-15T19:57:15.374Z,8.73
2023-05-15T19:59:42.283Z,7.72
2023-05-15T20:02:11.151Z,7.35
2023-05-15T20:04:38.237Z,8.40
2023-05-15T20:07:05.852Z,8.10
2023-05-15T20:09:32.912Z,6.90
2023-05-15T20:12:00.361Z,7.05
2023-05-15T20:14:27.910Z,6.97
2023-05-15T20:16:54.904Z,6.75
2023-05-15T20:19:22.423Z,7.57
2023-05-15T20:21:50.823Z,9.55
2023-05-15T20:24:18.227Z,8.95
2023-05-15T20:26:45.677Z,10.23
2023-05-15T20:29:15.199Z,10.23
2023-05-15T20:31:42.446Z,9.77
2023-05-15T20:34:10.105Z,9.45
2023-05-15T20:36:39.000Z,8.57
2023-05-15T20:39:07.562Z,8.65
2023-05-15T20:41:35.711Z,8.80
2023-05-15T20:44:03.390Z,9.70
2023-05-15T20:46:30.807Z,10.18
2023-05-15T20:48:57.919Z,9.40
2023-05-15T20:51:25.201Z,9.90
2023-05-15T20:53:52.189Z,9.68
2023-05-15T20:56:19.098Z,10.35
2023-05-15T20:58:46.116Z,10.40
2023-05-15T21:01:13.552Z,10.35
2023-05-15T21:03:40.906Z,11.73
2023-05-15T21:06:09.482Z,13.60
2023-05-15T21:08:36.464Z,11.82
2023-05-15T21:11:03.435Z,14.70
2023-05-15T21:13:30.980Z,15.95
2023-05-15T21:15:57.942Z,14.55
2023-05-15T21:18:24.989Z,14.90
2023-05-15T21:20:53.418Z,15.10
2023-05-15T21:23:21.437Z,14.63
2023-05-15T21:25:48.475Z,15.23
2023-05-15T21:28:15.937Z,16.30
2023-05-15T21:30:43.369Z,19.73
2023-05-15T21:33:10.600Z,19.05
2023-05-15T21:35:38.273Z,19.48
2023-05-15T21:38:05.786Z,21.40
2023-05-15T21:40:32.976Z,20.63
2023-05-15T21:43:00.016Z,23.30
2023-05-15T21:45:26.944Z,22.98
2023-05-15T21:47:54.558Z,23.23
2023-05-15T21:50:21.525Z,21.88
2023-05-15T21:52:50.847Z,22.23
2023-05-15T21:55:18.468Z,22.30
2023-05-15T21:57:45.996Z,22.60
2023-05-15T22:00:14.302Z,20.70
2023-05-15T22:02:41.829Z,22.60
2023-05-15T22:05:09.280Z,22.15
2023-05-15T22:07:36.188Z,21.80
2023-05-15T22:10:03.793Z,23.15
2023-05-15T22:12:32.286Z,22.40
2023-05-15T22:15:00.189Z,22.15
2023-05-15T22:17:29.290Z,23.00
2023-05-15T22:20:07.131Z,23.50
2023-05-15T22:22:35.732Z,22.85
2023-05-15T22:25:02.875Z,22.33
2023-05-15T22:27:29.891Z,23.30
2023-05-15T22:29:58.563Z,24.17
2023-05-15T22:32:26.118Z,21.98
2023-05-15T22:34:53.057Z,23.58
2023-05-15T22:37:20.456Z,23.27
2023-05-15T22:39:50.555Z,22.65
2023-05-15T22:42:19.499Z,22.42
2023-05-15T22:44:47.283Z,24.00
2023-05-15T22:47:14.682Z,24.08
2023-05-15T22:49:41.757Z,22.25
2023-05-15T22:52:08.654Z,23.13
2023-05-15T22:54:35.835Z,22.77
2023-05-15T22:57:02.836Z,23.70
2023-05-15T22:59:29.819Z,23.95
2023-05-15T23:01:56.930Z,22.23
2023-05-15T23:04:24.088Z,23.83
2023-05-15T23:06:51.202Z,23.55
2023-05-15T23:09:18.278Z,21.10
2023-05-15T23:11:45.627Z,22.75
2023-05-15T23:14:12.683Z,22.73
2023-05-15T23:16:39.654Z,23.05
2023-05-15T23:19:06.607Z,25.65
2023-05-15T23:21:33.716Z,24.33
2023-05-15T23:24:01.206Z,23.35
2023-05-15T23:26:28.084Z,24.73
2023-05-15T23:28:55.468Z,24.48
2023-05-15T23:31:22.735Z,25.02
2023-05-15T23:33:50.911Z,23.88
2023-05-15T23:36:18.266Z,25.63
2023-05-15T23:38:45.985Z,23.48
2023-05-15T23:41:12.960Z,24.50
2023-05-15T23:43:40.069Z,23.88
2023-05-15T23:46:07.393Z,21.88
2023-05-15T23:48:34.760Z,24.33
2023-05-15T23:51:01.733Z,23.10
2023-05-15T23:53:28.921Z,23.48
2023-05-15T23:55:55.778Z,24.05
2023-05-15T23:58:23.594Z,22.15
